PLYK1: Cottonwood River, Plymouth, KS

                                SHEF ID:       PLYK1     COTTONWOOD R NR PLYMOUTH, KS
STATION TYPE:
Regulating: Stage = 28.00, Flow = 11886

PRECIP STAGE STAGE(2) RIV-FLOW BAT-LOAD
in ft ft cfs volt
Ccp-Rev Ccp-Rev Ccp-Rev Ccp-Rev Ccp-Rev
(America/Chicago)
12/02 00:00 0.00 7.69 ---- 1275 12.29
12/02 01:00 0.00 7.66 ---- 1266 12.27
12/02 02:00 0.00 7.62 ---- 1253 12.25
12/02 03:00 0.00 7.59 ---- 1243 12.24
12/02 04:00 0.00 7.55 ---- 1231 12.23
12/02 05:00 0.00 7.52 ---- 1221 12.21
12/02 06:00 0.00 7.49 ---- 1212 12.21
12/02 07:00 0.00 7.45 ---- 1199 12.19
12/02 08:00 0.00 7.42 ---- 1190 12.19
12/02 09:00 0.00 7.39 ---- 1181 12.31
12/02 10:00 0.01 7.37 ---- 1175 13.36
12/02 11:00 0.00 7.33 ---- 1162 13.59
12/02 12:00 0.00 7.32 ---- 1159 13.62
12/02 13:00 0.00 7.29 ---- 1150 13.42
12/02 14:00 0.00 7.27 ---- 1144 13.71
12/02 15:00 0.00 7.25 ---- 1138 13.57
12/02 16:00 0.00 7.23 ---- 1132 12.94
12/02 17:00 0.00 7.21 ---- 1126 12.90
12/02 18:00 0.00 7.20 ---- 1123 12.80
12/02 19:00 0.00 7.22 ---- 1129 12.76
12/02 20:00 0.00 7.28 ---- 1147 12.71
12/02 21:00 0.00 7.38 ---- 1178 12.67
12/02 22:00 0.00 7.52 ---- 1221 12.65
12/02 23:00 0.00 7.69 ---- 1275 12.63
Data processed at Wed 03Dec2025 05:06 GMT

NOTICE: If you are parsing this page

Please convert to using our Data API. Starting January 1st, 2026 we will be migrating to: https://water.usace.army.mil with modern pages rendered in JavaScript. You will no longer be able to scrape this page! CWMSDataAPI (CDA)

Timeseries IDs (TSIDs)

TSIDs used from left to right in the data table
PLYM.Precip-Inc.Total.1Hour.1Hour.Ccp-Rev
PLYM.Stage.Inst.1Hour.0.Ccp-Rev
PLYM.Stage-Alt.Inst.1Hour.0.Ccp-Rev
PLYM.Flow.Inst.1Hour.0.Ccp-Rev
PLYM.Volt-Battery Load.Inst.1Hour.0.Ccp-Rev

                            

All information presented herein is the property of the government of the United States of America and may be revised or deleted at any time without prior notice. Dissemination of this information without the expressed written consent of the Public Affairs Office, Tulsa District U.S. Army Corps of Engineers is strictly prohibited. These data are gathered electronically and, as presented, have NOT undergone any form of quality control. These data are NOT guaranteed to be valid or correct.